createdAt,value
2022-10-30T00:00:01.883Z,0.00
2022-10-30T00:01:05.771Z,0.00
2022-10-30T00:02:09.926Z,0.00
2022-10-30T00:03:14.283Z,0.00
2022-10-30T00:04:18.425Z,0.50
2022-10-30T00:05:22.922Z,0.00
2022-10-30T00:06:27.295Z,0.00
2022-10-30T00:07:31.750Z,0.00
2022-10-30T00:08:35.957Z,0.00
2022-10-30T00:09:39.953Z,0.00
2022-10-30T00:10:44.612Z,0.00
2022-10-30T00:11:48.875Z,0.00
2022-10-30T00:12:53.202Z,0.00
2022-10-30T00:13:57.496Z,0.00
2022-10-30T00:15:01.797Z,0.00
2022-10-30T00:16:05.806Z,0.50
2022-10-30T00:17:09.808Z,0.50
2022-10-30T00:18:13.904Z,0.00
2022-10-30T00:19:17.913Z,0.00
2022-10-30T00:20:22.220Z,0.00
2022-10-30T00:21:26.626Z,0.50
2022-10-30T00:22:30.632Z,0.00
2022-10-30T00:23:34.837Z,0.00
2022-10-30T00:24:39.037Z,0.00
2022-10-30T00:25:43.555Z,0.00
2022-10-30T00:26:47.646Z,0.00
2022-10-30T00:27:51.970Z,0.00
2022-10-30T00:28:56.077Z,0.00
2022-10-30T00:30:00.367Z,0.00
2022-10-30T00:31:04.597Z,0.00
2022-10-30T00:32:08.787Z,0.00
2022-10-30T00:33:13.306Z,0.00
2022-10-30T00:34:17.461Z,0.00
2022-10-30T00:35:22.913Z,0.00
2022-10-30T00:36:27.139Z,0.00
2022-10-30T00:37:31.248Z,0.00
2022-10-30T00:38:35.658Z,0.00
2022-10-30T00:39:40.173Z,0.00
2022-10-30T00:40:44.591Z,0.00
2022-10-30T00:41:48.893Z,0.50
2022-10-30T00:42:53.314Z,0.50
2022-10-30T00:43:57.818Z,0.50
2022-10-30T00:45:02.025Z,0.50
2022-10-30T00:46:06.537Z,0.00
2022-10-30T00:47:10.739Z,0.00
2022-10-30T00:48:15.156Z,0.00
2022-10-30T00:49:19.393Z,0.00
2022-10-30T00:50:23.500Z,0.50
2022-10-30T00:51:27.973Z,0.33
2022-10-30T00:52:32.300Z,0.00
2022-10-30T00:53:36.697Z,0.50
2022-10-30T00:54:40.790Z,0.50
2022-10-30T00:55:45.310Z,0.75
2022-10-30T00:56:49.554Z,0.00
2022-10-30T00:57:53.822Z,0.00
2022-10-30T00:58:58.032Z,0.00
2022-10-30T01:00:02.540Z,0.00
2022-10-30T01:01:06.709Z,0.00
2022-10-30T01:02:11.074Z,0.00
2022-10-30T01:03:15.616Z,0.00
2022-10-30T01:04:19.727Z,0.00
2022-10-30T01:05:23.888Z,0.50
2022-10-30T01:06:28.293Z,0.00
2022-10-30T01:07:32.502Z,0.00
2022-10-30T01:08:36.949Z,0.00
2022-10-30T01:09:41.211Z,0.00
2022-10-30T01:10:45.726Z,0.00
2022-10-30T01:11:50.120Z,0.00
2022-10-30T01:12:54.233Z,0.00
2022-10-30T01:13:58.527Z,0.50
2022-10-30T01:15:02.652Z,0.00
2022-10-30T01:16:06.862Z,0.00
2022-10-30T01:17:11.167Z,0.50
2022-10-30T01:18:15.472Z,0.50
2022-10-30T01:19:19.885Z,0.00
2022-10-30T01:20:24.010Z,0.50
2022-10-30T01:21:27.999Z,0.50
2022-10-30T01:22:32.508Z,0.00
2022-10-30T01:23:36.912Z,0.25
2022-10-30T01:24:41.329Z,0.00
2022-10-30T01:25:45.421Z,0.00
2022-10-30T01:26:49.644Z,0.00
2022-10-30T01:27:54.053Z,0.00
2022-10-30T01:28:58.254Z,0.00
2022-10-30T01:30:02.559Z,0.00
2022-10-30T01:31:06.761Z,0.00
2022-10-30T01:32:11.074Z,0.00
2022-10-30T01:33:15.585Z,0.00
2022-10-30T01:34:19.925Z,0.00
2022-10-30T01:35:24.202Z,0.00
2022-10-30T01:36:28.917Z,0.00
2022-10-30T01:37:33.740Z,0.50
2022-10-30T01:38:39.185Z,0.50
2022-10-30T01:39:44.034Z,0.00
2022-10-30T01:40:50.451Z,0.00
2022-10-30T01:41:54.654Z,0.00
2022-10-30T01:42:58.771Z,0.00
2022-10-30T01:44:02.640Z,0.00
2022-10-30T01:45:06.564Z,0.00
2022-10-30T01:46:10.673Z,0.00
2022-10-30T01:47:14.960Z,1.00
2022-10-30T01:48:19.176Z,0.00
2022-10-30T01:50:28.096Z,0.00
2022-10-30T01:51:32.209Z,0.00
2022-10-30T01:52:36.458Z,0.00
2022-10-30T01:53:40.614Z,0.00
2022-10-30T01:54:44.823Z,0.00
2022-10-30T01:55:49.025Z,0.00
2022-10-30T01:56:53.132Z,0.00
2022-10-30T01:57:57.246Z,0.50
2022-10-30T01:59:01.351Z,0.50
2022-10-30T02:00:05.650Z,0.00
2022-10-30T02:01:09.815Z,0.25
2022-10-30T02:02:14.266Z,0.50
2022-10-30T02:03:18.575Z,0.50
2022-10-30T02:04:22.483Z,0.25
2022-10-30T02:05:26.664Z,0.00
2022-10-30T02:06:31.083Z,0.00
2022-10-30T02:07:35.604Z,0.00
2022-10-30T02:08:39.507Z,0.00
2022-10-30T02:09:44.007Z,0.00
2022-10-30T02:10:47.949Z,0.00
2022-10-30T02:11:52.128Z,0.00
2022-10-30T02:12:56.224Z,0.00
2022-10-30T02:14:00.217Z,0.00
2022-10-30T02:15:04.219Z,0.00
2022-10-30T02:16:08.547Z,0.50
2022-10-30T02:17:12.559Z,0.50
2022-10-30T02:18:16.580Z,0.25
2022-10-30T02:19:20.537Z,0.50
2022-10-30T02:20:24.655Z,0.00
2022-10-30T02:21:29.256Z,0.00
2022-10-30T02:22:33.737Z,0.00
2022-10-30T02:23:37.962Z,0.00
2022-10-30T02:24:41.987Z,0.00
2022-10-30T02:25:46.182Z,0.00
2022-10-30T02:26:50.592Z,0.00
2022-10-30T02:27:54.709Z,0.25
2022-10-30T02:28:58.891Z,0.50
2022-10-30T02:30:03.003Z,0.00
2022-10-30T02:31:07.131Z,0.25
2022-10-30T02:32:11.409Z,0.00
2022-10-30T02:33:15.618Z,0.00
2022-10-30T02:34:20.049Z,0.00
2022-10-30T02:35:24.439Z,0.00
2022-10-30T02:36:28.646Z,0.00
2022-10-30T02:37:33.071Z,0.00
2022-10-30T02:38:37.271Z,0.00
2022-10-30T02:39:41.481Z,0.00
2022-10-30T02:40:45.581Z,0.00
2022-10-30T02:41:49.571Z,0.50
2022-10-30T02:42:53.781Z,0.50
2022-10-30T02:43:57.780Z,0.00
2022-10-30T02:45:01.881Z,0.00
2022-10-30T02:46:06.194Z,0.00
2022-10-30T02:47:10.500Z,0.00
2022-10-30T02:48:14.709Z,0.00
2022-10-30T02:49:18.883Z,0.00
2022-10-30T02:50:23.324Z,0.00
2022-10-30T02:51:27.293Z,0.00
2022-10-30T02:52:31.261Z,0.00
2022-10-30T02:53:35.428Z,0.50
2022-10-30T02:54:39.632Z,0.50
2022-10-30T02:55:43.939Z,0.00
2022-10-30T02:56:48.042Z,0.25
2022-10-30T02:57:52.349Z,0.50
2022-10-30T02:58:56.330Z,0.00
2022-10-30T03:00:00.351Z,0.00
2022-10-30T03:01:04.510Z,0.00
2022-10-30T03:02:08.515Z,0.00
2022-10-30T03:03:12.562Z,0.00
2022-10-30T03:04:16.663Z,0.00
2022-10-30T03:05:20.774Z,0.00
2022-10-30T03:06:24.969Z,0.50
2022-10-30T03:07:29.175Z,0.50
2022-10-30T03:08:33.593Z,0.50
2022-10-30T03:09:37.702Z,0.50
2022-10-30T03:10:41.905Z,0.00
2022-10-30T03:11:46.115Z,0.00
2022-10-30T03:12:50.332Z,1.00
2022-10-30T03:13:54.924Z,0.75
2022-10-30T03:14:59.232Z,0.00
2022-10-30T03:16:03.202Z,0.00
2022-10-30T03:17:07.131Z,0.25
2022-10-30T03:18:11.256Z,0.00
2022-10-30T03:19:15.446Z,0.00
2022-10-30T03:20:19.547Z,0.00
2022-10-30T03:21:23.546Z,0.00
2022-10-30T03:22:27.560Z,0.00
2022-10-30T03:23:31.758Z,0.00
2022-10-30T03:24:35.954Z,0.00
2022-10-30T03:25:39.994Z,0.50
2022-10-30T03:26:44.065Z,0.00
2022-10-30T03:27:48.376Z,0.00
2022-10-30T03:28:52.888Z,0.00
2022-10-30T03:29:57.124Z,0.50
2022-10-30T03:31:01.503Z,1.00
2022-10-30T03:32:05.489Z,0.00
2022-10-30T03:33:09.509Z,1.00
2022-10-30T03:34:13.712Z,1.50
2022-10-30T03:35:17.714Z,1.25
2022-10-30T03:36:21.835Z,1.00
2022-10-30T03:37:25.816Z,0.50
2022-10-30T03:38:29.839Z,0.25
2022-10-30T03:39:33.920Z,0.75
2022-10-30T03:40:38.125Z,0.50
2022-10-30T03:41:42.348Z,0.25
2022-10-30T03:42:46.240Z,0.00
2022-10-30T03:43:50.239Z,0.00
2022-10-30T03:44:54.246Z,0.00
2022-10-30T03:45:58.148Z,0.25
2022-10-30T03:47:02.099Z,0.00
2022-10-30T03:48:06.028Z,0.00
2022-10-30T03:49:10.340Z,0.00
2022-10-30T03:50:14.337Z,0.00
2022-10-30T03:51:18.545Z,0.00
2022-10-30T03:52:22.754Z,0.00
2022-10-30T03:53:26.887Z,0.50
2022-10-30T03:54:31.370Z,0.00
2022-10-30T03:55:35.491Z,0.50
2022-10-30T03:56:39.578Z,0.50
2022-10-30T03:57:43.668Z,0.00
2022-10-30T03:58:48.063Z,0.00
2022-10-30T03:59:52.101Z,0.00
2022-10-30T04:00:56.000Z,0.00
2022-10-30T04:02:00.004Z,0.00
2022-10-30T04:03:04.198Z,0.00
2022-10-30T04:04:08.403Z,0.50
2022-10-30T04:05:12.419Z,1.00
2022-10-30T04:06:16.400Z,0.75
2022-10-30T04:07:20.921Z,0.00
2022-10-30T04:08:25.228Z,0.00
2022-10-30T04:09:29.228Z,0.00
2022-10-30T04:10:33.609Z,0.00
2022-10-30T04:11:37.856Z,0.00
2022-10-30T04:12:41.868Z,0.00
2022-10-30T04:13:45.842Z,0.00
2022-10-30T04:14:49.506Z,0.50
2022-10-30T04:15:56.200Z,0.50
2022-10-30T04:16:58.253Z,0.00
2022-10-30T04:18:02.641Z,0.50
2022-10-30T04:19:07.182Z,0.00
2022-10-30T04:20:11.095Z,0.00
2022-10-30T04:21:15.186Z,0.50
2022-10-30T04:22:19.187Z,0.50
2022-10-30T04:23:23.296Z,0.00
2022-10-30T04:24:27.709Z,0.50
2022-10-30T04:25:32.220Z,0.50
2022-10-30T04:26:36.422Z,0.50
2022-10-30T04:27:40.822Z,0.50
2022-10-30T04:28:45.038Z,0.00
2022-10-30T04:29:49.446Z,0.25
2022-10-30T04:30:53.445Z,0.50
2022-10-30T04:31:57.733Z,0.00
2022-10-30T04:33:02.274Z,0.00
2022-10-30T04:34:06.880Z,1.00
2022-10-30T04:35:10.864Z,0.00
2022-10-30T04:36:15.203Z,0.00
2022-10-30T04:37:19.197Z,0.50
2022-10-30T04:38:23.416Z,1.00
2022-10-30T04:39:27.605Z,0.50
2022-10-30T04:40:31.929Z,0.00
2022-10-30T04:41:36.215Z,0.00
2022-10-30T04:42:40.527Z,0.00
2022-10-30T04:43:44.546Z,0.00
2022-10-30T04:44:48.645Z,0.00
2022-10-30T04:45:52.940Z,0.50
2022-10-30T04:46:56.944Z,0.00
2022-10-30T04:48:01.604Z,0.00
2022-10-30T04:49:06.067Z,0.00
2022-10-30T04:50:10.178Z,0.00
2022-10-30T04:51:14.175Z,0.00
2022-10-30T04:52:18.172Z,0.50
2022-10-30T04:53:22.180Z,0.50
2022-10-30T04:54:26.904Z,0.00
2022-10-30T04:55:31.097Z,0.00
2022-10-30T04:56:35.310Z,0.25
2022-10-30T04:57:39.310Z,0.50
2022-10-30T04:58:43.024Z,0.00
2022-10-30T04:59:46.858Z,0.00
2022-10-30T05:00:50.677Z,0.00
2022-10-30T05:01:54.688Z,0.00
2022-10-30T05:02:58.695Z,1.00
2022-10-30T05:04:02.911Z,1.00
2022-10-30T05:05:07.110Z,0.50
2022-10-30T05:06:11.012Z,0.00
2022-10-30T05:07:15.312Z,0.50
2022-10-30T05:08:19.346Z,1.00
2022-10-30T05:09:23.553Z,0.75
2022-10-30T05:10:27.629Z,0.25
2022-10-30T05:11:31.850Z,0.00
2022-10-30T05:12:36.037Z,0.00
2022-10-30T05:13:40.308Z,0.00
2022-10-30T05:14:44.254Z,0.50
2022-10-30T05:15:48.249Z,0.00
2022-10-30T05:16:52.254Z,0.50
2022-10-30T05:17:56.862Z,0.50
2022-10-30T05:19:01.270Z,0.25
2022-10-30T05:20:05.475Z,0.50
2022-10-30T05:21:09.787Z,1.00
2022-10-30T05:22:13.789Z,1.00
2022-10-30T05:23:17.992Z,0.00
2022-10-30T05:24:22.012Z,0.00
2022-10-30T05:25:26.097Z,0.00
2022-10-30T05:26:30.185Z,0.00
2022-10-30T05:27:34.202Z,0.25
2022-10-30T05:28:38.445Z,0.50
2022-10-30T05:29:42.612Z,0.50
2022-10-30T05:30:46.721Z,0.25
2022-10-30T05:31:50.816Z,0.00
2022-10-30T05:32:55.120Z,0.00
2022-10-30T05:34:01.781Z,0.50
2022-10-30T05:35:04.768Z,0.50
2022-10-30T05:36:09.193Z,0.50
2022-10-30T05:37:13.283Z,1.00
2022-10-30T05:38:17.291Z,0.50
2022-10-30T05:39:21.616Z,0.00
2022-10-30T05:40:25.857Z,0.00
2022-10-30T05:41:29.907Z,0.00
2022-10-30T05:42:34.114Z,0.50
2022-10-30T05:43:38.317Z,0.50
2022-10-30T05:44:59.771Z,0.00
2022-10-30T05:45:48.464Z,0.00
2022-10-30T05:46:52.959Z,0.50
2022-10-30T05:47:57.675Z,0.50
2022-10-30T05:49:02.318Z,0.50
2022-10-30T05:50:06.518Z,0.50
2022-10-30T05:51:10.829Z,0.75
2022-10-30T05:52:14.786Z,0.00
2022-10-30T05:53:18.688Z,0.00
2022-10-30T05:54:22.626Z,0.00
2022-10-30T05:55:26.751Z,0.50
2022-10-30T05:56:30.728Z,0.50
2022-10-30T05:57:34.937Z,0.50
2022-10-30T05:58:39.045Z,0.00
2022-10-30T05:59:43.053Z,0.50
2022-10-30T06:00:47.273Z,0.50
2022-10-30T06:01:51.163Z,0.00
2022-10-30T06:02:55.344Z,0.00
2022-10-30T06:03:59.555Z,0.00
2022-10-30T06:05:03.769Z,0.50
2022-10-30T06:06:07.967Z,0.00
2022-10-30T06:07:12.173Z,0.00
2022-10-30T06:08:16.396Z,0.00
2022-10-30T06:09:20.584Z,0.50
2022-10-30T06:10:24.893Z,0.50
2022-10-30T06:11:29.027Z,1.00
2022-10-30T06:12:33.208Z,0.00
2022-10-30T06:13:37.305Z,0.50
2022-10-30T06:14:41.629Z,0.50
2022-10-30T06:15:45.823Z,0.50
2022-10-30T06:16:50.139Z,0.00
2022-10-30T06:17:54.236Z,0.50
2022-10-30T06:18:58.540Z,0.00
2022-10-30T06:20:02.952Z,1.00
2022-10-30T06:21:06.952Z,0.75
2022-10-30T06:22:11.055Z,1.00
2022-10-30T06:23:15.581Z,0.50
2022-10-30T06:24:19.689Z,0.50
2022-10-30T06:25:23.676Z,0.00
2022-10-30T06:26:28.186Z,0.00
2022-10-30T06:27:32.394Z,1.50
2022-10-30T06:28:36.400Z,1.00
2022-10-30T06:29:40.347Z,0.50
2022-10-30T06:30:44.504Z,0.25
2022-10-30T06:31:48.608Z,0.50
2022-10-30T06:32:52.906Z,0.00
2022-10-30T06:33:57.119Z,0.00
2022-10-30T06:35:01.318Z,0.50
2022-10-30T06:36:05.627Z,1.00
2022-10-30T06:37:09.568Z,0.50
2022-10-30T06:38:13.732Z,0.00
2022-10-30T06:39:17.794Z,0.00
2022-10-30T06:40:21.739Z,0.50
2022-10-30T06:41:27.560Z,0.75
2022-10-30T06:42:31.064Z,1.00
2022-10-30T06:43:35.292Z,1.00
2022-10-30T06:44:39.484Z,1.00
2022-10-30T06:45:43.716Z,2.00
2022-10-30T06:46:47.893Z,0.25
2022-10-30T06:47:51.920Z,0.00
2022-10-30T06:48:55.899Z,0.00
2022-10-30T06:49:59.814Z,0.50
2022-10-30T06:51:03.791Z,0.00
2022-10-30T06:52:07.900Z,0.50
2022-10-30T06:53:11.796Z,0.50
2022-10-30T06:54:15.794Z,0.50
2022-10-30T06:55:20.107Z,0.50
2022-10-30T06:56:25.038Z,0.25
2022-10-30T06:57:29.230Z,0.50
2022-10-30T06:58:34.672Z,1.50
2022-10-30T06:59:38.995Z,1.00
2022-10-30T07:00:43.543Z,0.75
2022-10-30T07:01:47.796Z,0.75
2022-10-30T07:02:52.105Z,1.00
2022-10-30T07:03:56.443Z,1.00
2022-10-30T07:05:00.516Z,1.00
2022-10-30T07:06:04.528Z,1.00
2022-10-30T07:07:08.423Z,0.75
2022-10-30T07:08:12.725Z,1.00
2022-10-30T07:09:17.243Z,0.75
2022-10-30T07:10:21.446Z,0.50
2022-10-30T07:11:25.952Z,1.25
2022-10-30T07:12:30.462Z,1.00
2022-10-30T07:13:34.574Z,1.00
2022-10-30T07:14:38.698Z,0.50
2022-10-30T07:16:46.687Z,1.00
2022-10-30T07:17:50.783Z,1.00
2022-10-30T07:18:54.550Z,1.00
2022-10-30T07:19:58.903Z,1.00
2022-10-30T07:21:02.787Z,1.25
2022-10-30T07:22:06.992Z,1.00
2022-10-30T07:23:11.002Z,1.50
2022-10-30T07:24:14.989Z,1.50
2022-10-30T07:25:19.308Z,0.50
2022-10-30T07:26:23.297Z,1.50
2022-10-30T07:27:27.221Z,1.50
2022-10-30T07:28:31.309Z,1.00
2022-10-30T07:29:35.408Z,1.00
2022-10-30T07:30:39.723Z,1.00
2022-10-30T07:31:57.558Z,0.50
2022-10-30T07:32:49.122Z,0.00
2022-10-30T07:33:53.216Z,0.50
2022-10-30T07:34:57.385Z,0.50
2022-10-30T07:36:01.466Z,0.00
2022-10-30T07:37:05.459Z,1.00
2022-10-30T07:38:09.666Z,0.00
2022-10-30T07:39:13.691Z,0.50
2022-10-30T07:40:17.987Z,1.00
2022-10-30T07:41:22.071Z,1.00
2022-10-30T07:42:26.096Z,0.50
2022-10-30T07:43:30.285Z,1.00
2022-10-30T07:44:34.492Z,1.00
2022-10-30T07:45:38.703Z,0.50
2022-10-30T07:46:43.111Z,0.00
2022-10-30T07:47:47.525Z,1.00
2022-10-30T07:48:52.341Z,0.75
2022-10-30T07:49:56.653Z,1.25
2022-10-30T07:51:00.750Z,1.50
2022-10-30T07:52:05.166Z,0.50
2022-10-30T07:53:09.162Z,0.75
2022-10-30T07:54:13.162Z,1.00
2022-10-30T07:55:17.377Z,1.00
2022-10-30T07:56:21.987Z,1.00
2022-10-30T07:57:26.093Z,0.50
2022-10-30T07:58:30.403Z,0.00
2022-10-30T07:59:34.563Z,0.50
2022-10-30T08:00:38.908Z,0.50
2022-10-30T08:01:43.250Z,1.00
2022-10-30T08:02:47.709Z,0.00
2022-10-30T08:03:52.243Z,1.00
2022-10-30T08:04:56.456Z,0.50
2022-10-30T08:06:00.801Z,0.50
2022-10-30T08:07:04.757Z,1.00
2022-10-30T08:08:09.170Z,1.00
2022-10-30T08:09:13.388Z,0.75
2022-10-30T08:10:17.581Z,0.50
2022-10-30T08:11:21.689Z,0.75
2022-10-30T08:12:25.896Z,0.25
2022-10-30T08:13:30.102Z,0.00
2022-10-30T08:14:34.512Z,0.00
2022-10-30T08:15:38.837Z,1.75
2022-10-30T08:16:42.947Z,1.50
2022-10-30T08:17:47.241Z,1.50
2022-10-30T08:18:51.439Z,1.50
2022-10-30T08:19:55.691Z,1.00
2022-10-30T08:20:59.835Z,1.00
2022-10-30T08:22:03.971Z,1.50
2022-10-30T08:23:08.051Z,1.50
2022-10-30T08:24:12.050Z,1.50
2022-10-30T08:25:17.315Z,0.25
2022-10-30T08:26:21.405Z,0.50
2022-10-30T08:27:25.814Z,1.00
2022-10-30T08:28:32.733Z,1.00
2022-10-30T08:29:35.338Z,0.75
2022-10-30T08:30:39.653Z,1.00
2022-10-30T08:31:43.546Z,1.00
2022-10-30T08:32:47.543Z,1.00
2022-10-30T08:33:51.650Z,1.50
2022-10-30T08:34:55.746Z,2.00
2022-10-30T08:35:59.752Z,1.25
2022-10-30T08:37:03.522Z,1.00
2022-10-30T08:38:07.546Z,1.50
2022-10-30T08:39:12.582Z,1.00
2022-10-30T08:40:16.575Z,0.50
2022-10-30T08:41:20.574Z,0.00
2022-10-30T08:42:33.108Z,1.00
2022-10-30T08:43:37.277Z,1.00
2022-10-30T08:44:41.604Z,0.00
2022-10-30T08:45:46.109Z,1.50
2022-10-30T08:46:50.411Z,2.00
2022-10-30T08:47:54.938Z,2.25
2022-10-30T08:48:59.436Z,1.50
2022-10-30T08:50:03.644Z,0.50
2022-10-30T08:51:07.752Z,0.75
2022-10-30T08:52:11.749Z,1.00
2022-10-30T08:53:15.745Z,1.50
2022-10-30T08:54:19.952Z,1.00
2022-10-30T08:55:24.266Z,0.75
2022-10-30T08:56:28.466Z,0.00
2022-10-30T08:57:32.472Z,0.00
2022-10-30T08:58:36.784Z,1.00
2022-10-30T08:59:40.918Z,1.50
2022-10-30T09:00:44.990Z,1.00
2022-10-30T09:01:48.956Z,1.50
2022-10-30T09:02:53.086Z,1.00
2022-10-30T09:03:57.091Z,1.00
2022-10-30T09:05:01.273Z,1.25
2022-10-30T09:06:05.302Z,1.00
2022-10-30T09:07:12.070Z,1.25
2022-10-30T09:08:14.601Z,1.00
2022-10-30T09:09:19.857Z,0.00
2022-10-30T09:10:24.042Z,0.25
2022-10-30T09:11:28.371Z,1.00
2022-10-30T09:12:32.481Z,1.00
2022-10-30T09:13:36.580Z,1.00
2022-10-30T09:14:41.916Z,1.00
2022-10-30T09:15:46.728Z,1.50
2022-10-30T09:16:51.557Z,1.50
2022-10-30T09:17:56.216Z,1.50
2022-10-30T09:19:00.686Z,1.25
2022-10-30T09:20:04.971Z,1.00
2022-10-30T09:21:08.991Z,0.50
2022-10-30T09:22:13.101Z,1.00
2022-10-30T09:23:17.091Z,1.00
2022-10-30T09:24:21.316Z,1.00
2022-10-30T09:25:25.819Z,1.00
2022-10-30T09:26:30.021Z,1.00
2022-10-30T09:27:34.226Z,0.50
2022-10-30T09:28:38.541Z,0.50
2022-10-30T09:29:42.815Z,0.00
2022-10-30T09:30:46.947Z,0.50
2022-10-30T09:31:50.844Z,1.25
2022-10-30T09:32:55.150Z,2.00
2022-10-30T09:33:59.452Z,1.00
2022-10-30T09:35:03.569Z,1.00
2022-10-30T09:36:07.773Z,1.00
2022-10-30T09:37:11.682Z,0.50
2022-10-30T09:38:15.572Z,1.00
2022-10-30T09:39:19.796Z,0.50
2022-10-30T09:40:23.914Z,1.00
2022-10-30T09:41:27.951Z,1.00
2022-10-30T09:42:32.185Z,1.50
2022-10-30T09:43:36.292Z,0.75
2022-10-30T09:44:40.496Z,0.25
2022-10-30T09:45:44.598Z,0.50
2022-10-30T09:46:48.700Z,0.25
2022-10-30T09:47:52.700Z,0.75
2022-10-30T09:48:56.807Z,0.50
2022-10-30T09:50:00.708Z,1.50
2022-10-30T09:51:04.473Z,0.50
2022-10-30T09:52:08.417Z,1.00
2022-10-30T09:53:12.404Z,1.25
2022-10-30T09:54:16.356Z,1.00
2022-10-30T09:55:20.403Z,1.50
2022-10-30T09:56:24.400Z,1.25
2022-10-30T09:57:28.537Z,1.00
2022-10-30T09:58:32.506Z,1.00
2022-10-30T09:59:36.263Z,0.50
2022-10-30T10:00:40.202Z,0.50
2022-10-30T10:01:44.179Z,0.50
2022-10-30T10:02:48.280Z,0.50
2022-10-30T10:04:55.796Z,1.50
2022-10-30T10:05:59.799Z,0.75
2022-10-30T10:07:03.691Z,1.00
2022-10-30T10:08:07.647Z,1.50
2022-10-30T10:09:11.452Z,1.00
2022-10-30T10:10:15.243Z,1.50
2022-10-30T10:11:19.288Z,1.50
2022-10-30T10:12:23.291Z,1.00
2022-10-30T10:13:27.295Z,1.00
2022-10-30T10:14:31.503Z,1.00
2022-10-30T10:15:35.501Z,1.00
2022-10-30T10:16:39.630Z,1.50
2022-10-30T10:17:43.406Z,1.25
2022-10-30T10:18:47.414Z,1.00
2022-10-30T10:19:51.399Z,1.00
2022-10-30T10:20:55.402Z,1.00
2022-10-30T10:21:59.506Z,1.00
2022-10-30T10:23:03.301Z,1.00
2022-10-30T10:24:07.104Z,1.00
2022-10-30T10:25:11.015Z,1.50
2022-10-30T10:26:15.027Z,1.75
2022-10-30T10:27:19.107Z,1.50
2022-10-30T10:28:23.027Z,1.50
2022-10-30T10:29:27.099Z,1.50
2022-10-30T10:30:31.045Z,1.50
2022-10-30T10:31:34.901Z,1.00
2022-10-30T10:32:38.810Z,1.25
2022-10-30T10:33:42.718Z,0.50
2022-10-30T10:34:46.499Z,0.00
2022-10-30T10:35:50.568Z,1.00
2022-10-30T10:36:54.508Z,1.00
2022-10-30T10:37:58.526Z,1.00
2022-10-30T10:39:02.722Z,1.00
2022-10-30T10:40:06.916Z,1.00
2022-10-30T10:41:11.015Z,0.50
2022-10-30T10:42:15.015Z,0.50
2022-10-30T10:43:19.219Z,0.00
2022-10-30T10:44:23.506Z,0.50
2022-10-30T10:45:27.609Z,0.50
2022-10-30T10:46:31.740Z,0.75
2022-10-30T10:47:36.046Z,1.00
2022-10-30T10:48:40.292Z,0.50
2022-10-30T10:49:44.348Z,1.00
2022-10-30T10:50:48.557Z,0.75
2022-10-30T10:51:52.557Z,1.50
2022-10-30T10:52:56.851Z,1.50
2022-10-30T10:54:01.305Z,1.00
2022-10-30T10:55:04.982Z,0.50
2022-10-30T10:56:08.971Z,1.00
2022-10-30T10:57:12.833Z,1.00
2022-10-30T10:58:16.564Z,1.00
2022-10-30T10:59:20.974Z,1.50
2022-10-30T11:00:25.288Z,1.50
2022-10-30T11:01:29.807Z,1.00
2022-10-30T11:02:34.243Z,1.00
2022-10-30T11:03:38.419Z,1.00
2022-10-30T11:04:42.625Z,0.00
2022-10-30T11:05:46.807Z,0.25
2022-10-30T11:06:51.093Z,1.00
2022-10-30T11:07:55.362Z,2.00
2022-10-30T11:08:59.748Z,1.00
2022-10-30T11:10:03.851Z,1.00
2022-10-30T11:11:08.056Z,1.00
2022-10-30T11:12:11.963Z,0.50
2022-10-30T11:13:15.957Z,1.00
2022-10-30T11:14:19.867Z,1.50
2022-10-30T11:15:24.061Z,1.00
2022-10-30T11:16:28.275Z,0.50
2022-10-30T11:17:32.508Z,1.00
2022-10-30T11:18:36.753Z,2.00
2022-10-30T11:19:40.884Z,2.00
2022-10-30T11:20:45.090Z,0.00
2022-10-30T11:21:49.092Z,0.00
2022-10-30T11:22:53.299Z,0.00
2022-10-30T11:23:57.306Z,1.00
2022-10-30T11:25:01.406Z,1.00
2022-10-30T11:26:05.614Z,0.00
2022-10-30T11:27:09.514Z,1.00
2022-10-30T11:28:13.507Z,1.00
2022-10-30T11:29:17.317Z,1.00
2022-10-30T11:30:21.513Z,1.00
2022-10-30T11:31:25.740Z,1.25
2022-10-30T11:32:29.920Z,0.50
2022-10-30T11:33:33.934Z,0.50
2022-10-30T11:34:37.928Z,1.00
2022-10-30T11:35:41.933Z,1.00
2022-10-30T11:36:45.931Z,1.00
2022-10-30T11:37:49.927Z,0.00
2022-10-30T11:38:53.828Z,0.50
2022-10-30T11:39:57.629Z,0.50
2022-10-30T11:41:01.643Z,1.00
2022-10-30T11:42:05.519Z,1.00
2022-10-30T11:43:09.420Z,0.50
2022-10-30T11:44:13.521Z,1.00
2022-10-30T11:45:17.527Z,0.00
2022-10-30T11:46:21.430Z,0.50
2022-10-30T11:47:25.491Z,0.25
2022-10-30T11:48:29.499Z,0.00
2022-10-30T11:49:33.339Z,0.50
2022-10-30T11:50:37.221Z,1.00
2022-10-30T11:51:41.194Z,1.00
2022-10-30T11:52:45.129Z,1.00
2022-10-30T11:53:49.021Z,0.50
2022-10-30T11:54:53.022Z,0.50
2022-10-30T11:55:57.138Z,0.75
2022-10-30T11:57:00.929Z,1.00
2022-10-30T11:58:04.884Z,0.75
2022-10-30T11:59:08.929Z,1.00
2022-10-30T12:00:12.832Z,1.00
2022-10-30T12:01:16.870Z,1.25
2022-10-30T12:02:20.856Z,1.00
2022-10-30T12:03:24.932Z,0.00
2022-10-30T12:04:28.832Z,1.00
2022-10-30T12:05:32.728Z,0.50
2022-10-30T12:06:36.828Z,0.75
2022-10-30T12:07:40.735Z,1.00
2022-10-30T12:08:44.834Z,1.00
2022-10-30T12:09:48.864Z,1.50
2022-10-30T12:10:52.862Z,0.25
2022-10-30T12:11:57.041Z,0.50
2022-10-30T12:13:01.314Z,1.00
2022-10-30T12:14:05.969Z,0.25
2022-10-30T12:15:10.072Z,0.75
2022-10-30T12:16:13.760Z,0.50
2022-10-30T12:17:17.971Z,1.00
2022-10-30T12:18:22.154Z,1.00
2022-10-30T12:19:26.195Z,1.00
2022-10-30T12:20:30.421Z,0.50
2022-10-30T12:21:34.587Z,1.00
2022-10-30T12:22:38.789Z,1.00
2022-10-30T12:23:43.096Z,1.50
2022-10-30T12:24:47.372Z,1.00
2022-10-30T12:25:51.512Z,1.00
2022-10-30T12:26:55.612Z,1.00
2022-10-30T12:27:59.718Z,0.25
2022-10-30T12:29:04.004Z,1.00
2022-10-30T12:30:09.222Z,0.50
2022-10-30T12:31:13.113Z,1.00
2022-10-30T12:32:16.956Z,1.00
2022-10-30T12:33:21.050Z,1.00
2022-10-30T12:34:25.184Z,1.00
2022-10-30T12:35:29.263Z,1.00
2022-10-30T12:36:33.472Z,1.00
2022-10-30T12:37:37.503Z,1.00
2022-10-30T12:38:41.880Z,1.00
2022-10-30T12:39:46.086Z,1.50
2022-10-30T12:40:50.191Z,1.00
2022-10-30T12:41:54.360Z,0.75
2022-10-30T12:42:58.596Z,0.50
2022-10-30T12:44:02.392Z,1.00
2022-10-30T12:45:06.602Z,1.00
2022-10-30T12:46:10.602Z,0.50
2022-10-30T12:47:14.605Z,0.50
2022-10-30T12:48:18.602Z,1.00
2022-10-30T12:49:23.016Z,1.50
2022-10-30T12:50:27.118Z,1.50
2022-10-30T12:51:31.225Z,0.75
2022-10-30T12:52:35.224Z,1.00
2022-10-30T12:53:39.427Z,1.25
2022-10-30T12:54:43.131Z,1.00
2022-10-30T12:55:46.821Z,0.75
2022-10-30T12:56:50.724Z,0.50
2022-10-30T12:57:54.616Z,0.50
2022-10-30T12:58:58.611Z,1.25
2022-10-30T13:00:02.519Z,1.00
2022-10-30T13:01:06.404Z,1.50
2022-10-30T13:02:10.407Z,0.75
2022-10-30T13:03:14.307Z,1.00
2022-10-30T13:04:18.311Z,1.50
2022-10-30T13:05:22.313Z,1.00
2022-10-30T13:06:26.110Z,0.50
2022-10-30T13:07:30.115Z,0.50
2022-10-30T13:08:34.109Z,0.75
2022-10-30T13:09:38.013Z,1.00
2022-10-30T13:10:43.033Z,1.75
2022-10-30T13:11:47.247Z,1.50
2022-10-30T13:12:51.441Z,0.75
2022-10-30T13:13:55.617Z,2.00
2022-10-30T13:14:59.354Z,2.50
2022-10-30T13:16:03.549Z,1.50
2022-10-30T13:17:07.524Z,1.00
2022-10-30T13:18:11.345Z,0.50
2022-10-30T13:19:15.254Z,1.25
2022-10-30T13:20:19.149Z,1.25
2022-10-30T13:21:23.357Z,1.25
2022-10-30T13:22:27.256Z,1.00
2022-10-30T13:23:31.146Z,0.50
2022-10-30T13:24:35.013Z,1.00
2022-10-30T13:25:39.052Z,1.50
2022-10-30T13:26:43.156Z,0.50
2022-10-30T13:27:47.049Z,0.50
2022-10-30T13:28:50.844Z,1.00
2022-10-30T13:29:54.743Z,1.50
2022-10-30T13:30:58.748Z,1.50
2022-10-30T13:32:02.851Z,1.25
2022-10-30T13:33:06.644Z,1.00
2022-10-30T13:34:10.453Z,1.25
2022-10-30T13:35:14.383Z,0.50
2022-10-30T13:36:18.345Z,1.50
2022-10-30T13:37:22.245Z,1.25
2022-10-30T13:38:26.045Z,2.25
2022-10-30T13:39:30.042Z,1.00
2022-10-30T13:40:34.243Z,1.00
2022-10-30T13:41:38.140Z,1.00
2022-10-30T13:42:42.058Z,1.50
2022-10-30T13:43:46.144Z,2.00
2022-10-30T13:44:50.050Z,1.50
2022-10-30T13:45:53.839Z,1.00
2022-10-30T13:46:57.635Z,2.75
2022-10-30T13:48:01.859Z,2.00
2022-10-30T13:49:05.738Z,2.00
2022-10-30T13:50:12.610Z,2.00
2022-10-30T13:51:16.718Z,1.00
2022-10-30T13:52:21.958Z,1.00
2022-10-30T13:53:26.146Z,1.75
2022-10-30T13:54:30.254Z,2.00
2022-10-30T13:55:34.282Z,2.00
2022-10-30T13:56:38.321Z,1.50
2022-10-30T13:57:42.354Z,1.50
2022-10-30T13:58:46.561Z,2.00
2022-10-30T13:59:50.769Z,2.50
2022-10-30T14:00:54.670Z,2.50
2022-10-30T14:02:01.513Z,2.25
2022-10-30T14:03:03.756Z,2.00
2022-10-30T14:04:08.105Z,2.00
2022-10-30T14:05:11.889Z,1.50
2022-10-30T14:06:15.694Z,2.00
2022-10-30T14:07:19.699Z,2.00
2022-10-30T14:08:23.820Z,1.50
2022-10-30T14:09:27.805Z,1.50
2022-10-30T14:10:31.810Z,1.50
2022-10-30T14:11:35.717Z,2.00
2022-10-30T14:12:39.604Z,1.75
2022-10-30T14:13:43.495Z,1.50
2022-10-30T14:14:47.193Z,2.00
2022-10-30T14:15:51.056Z,1.50
2022-10-30T14:16:54.846Z,1.25